Blue Point, New York
Current Conditions -  °F | °C
As of 11:56 PM on Tuesday 21 Oct 2014 (Local Time) from KISP Reporting Station
Overcast Overcast  
Wind Chill: 57°   Ceiling: 4900
Heat Index: 57°   Visibility: 9mi
Dew Point: 55°   Wind: 10mph
Humidity: 93%   Direction: 30°NNE
Pressure: 29.89"   Gusts: NA
Location:  40.75°N, 73.03°W
Report Text: KISP 220356Z 03009KT 9SM SCT036 BKN049 OVC075 14/13 A2989 RMK AO2 RAE27B47E52 SLP119 LAST AUGMENTED OBSERVATION UNTIL 1000Z P0018 T01390128
Loading
Personal Weather Stations






























Interactive Weather Map
Tropical Storm Tracking
New forecast layout! Learn more

10-Day Weather Forecast

Advertisements
Track Severe Weather on mobile